Terminal Aerodrome Forecast
Issued by NWS Portland, ME

Current Version | Previous Version | Text Only | Print | Product List | Glossary On
Versions: 1 2 3 4 5 6 7 8 9 10 11 12 13 14 15 16 17 18 19 20 21 22 23 24 25
000 FTUS41 KGYX 010655 AAB TAFPWM TAF AMD KPWM 010655Z 0107/0206 18006KT 1/4SM FG VV002 FM011100 26003KT 2SM BR OVC002 FM011500 18006KT P6SM BKN250 FM020000 16003KT 4SM HZ BR BKN250=

USA.gov is the U.S. government's official web portal to all federal, state and local government web resources and services.